Time;durP1;ratioP1;P1;durP2;ratioP2;P2;SDS_P1;SDS_P2;PMS_P1;PMS_P2;Temp;Humidity;BMP_temperature;BMP_pressure;BME280_temperature;BME280_humidity;BME280_pressure;Samples;Min_cycle;Max_cycle;Signal;HPM_P1;HPM_P2
2021/01/08 00:01:13;;;;;;;4.10;3.80;;;;;;;6.10;60.89;100878.22;6249511;28;20235;-61
2021/01/08 00:04:35;;;;;;;4.50;4.10;;;;;;;6.13;61.00;100882.56;6251018;28;20308;-61
2021/01/08 00:07:56;;;;;;;4.73;4.33;;;;;;;6.20;60.82;100884.34;6252826;28;20232;-60
2021/01/08 00:11:19;;;;;;;6.20;5.67;;;;;;;6.24;60.84;100885.25;6252840;28;20596;-61
2021/01/08 00:14:40;;;;;;;5.13;4.73;;;;;;;6.17;60.62;100888.66;6248745;28;20224;-61
2021/01/08 00:18:01;;;;;;;5.53;5.03;;;;;;;6.19;60.81;100881.78;6253363;28;20231;-60
2021/01/08 00:21:22;;;;;;;4.33;3.93;;;;;;;6.19;60.72;100886.94;6249028;28;20322;-61
2021/01/08 00:24:42;;;;;;;4.90;4.50;;;;;;;6.09;61.16;100880.81;6256686;28;20499;-61
2021/01/08 00:28:04;;;;;;;4.80;4.40;;;;;;;6.00;61.02;100884.16;6252371;28;20326;-61
2021/01/08 00:31:24;;;;;;;5.53;5.13;;;;;;;6.09;60.99;100892.00;6252010;28;20240;-61
2021/01/08 00:34:45;;;;;;;5.20;4.70;;;;;;;5.93;61.08;100879.72;6257588;28;20231;-60
2021/01/08 00:38:06;;;;;;;6.00;5.50;;;;;;;6.00;61.29;100886.75;6257285;28;20263;-61
2021/01/08 00:41:30;;;;;;;4.43;4.10;;;;;;;5.99;61.14;100887.59;6256720;28;20232;-60
2021/01/08 00:44:51;;;;;;;5.47;4.97;;;;;;;5.97;61.05;100897.06;6248453;28;20227;-60
2021/01/08 00:48:11;;;;;;;4.67;4.27;;;;;;;6.01;61.06;100893.66;6264632;28;20223;-61
2021/01/08 00:51:33;;;;;;;5.43;5.00;;;;;;;6.05;60.52;100895.41;6264687;28;20231;-61
2021/01/08 00:54:54;;;;;;;5.97;4.83;;;;;;;6.07;60.86;100893.72;6254949;28;20231;-60
2021/01/08 00:58:39;;;;;;;5.60;5.10;;;;;;;6.03;60.79;100893.66;6262199;28;20231;-60
2021/01/08 01:01:59;;;;;;;4.80;4.47;;;;;;;6.06;60.36;100893.69;6254344;28;20345;-61
2021/01/08 01:05:19;;;;;;;5.00;4.53;;;;;;;6.05;60.65;100889.38;6262658;28;20223;-61
2021/01/08 01:08:40;;;;;;;5.10;4.67;;;;;;;6.05;60.53;100894.56;6260792;28;20232;-60
2021/01/08 01:12:03;;;;;;;4.87;4.37;;;;;;;6.04;60.61;100893.66;6260575;28;20232;-61
2021/01/08 01:15:23;;;;;;;5.40;5.00;;;;;;;6.03;60.20;100897.13;6255602;28;20237;-61
2021/01/08 01:18:45;;;;;;;4.80;4.50;;;;;;;5.98;60.56;100893.59;6250184;28;20244;-61
2021/01/08 01:22:05;;;;;;;6.23;4.57;;;;;;;5.93;60.69;100900.41;6246153;28;20737;-60
2021/01/08 01:25:26;;;;;;;4.97;4.57;;;;;;;5.85;60.77;100904.63;6262484;28;20322;-61
2021/01/08 01:28:47;;;;;;;4.70;4.20;;;;;;;5.91;61.10;100912.44;6258008;28;20784;-61
2021/01/08 01:32:07;;;;;;;4.27;3.97;;;;;;;5.94;61.05;100907.31;6259532;28;20377;-60
2021/01/08 01:35:29;;;;;;;3.90;3.60;;;;;;;5.93;61.03;100910.75;6266126;28;21093;-61
2021/01/08 01:38:50;;;;;;;4.50;4.10;;;;;;;5.88;61.00;100920.19;6261112;28;20232;-61
2021/01/08 01:42:11;;;;;;;4.70;4.30;;;;;;;5.88;60.63;100912.44;6255958;28;20227;-61
2021/01/08 01:45:31;;;;;;;3.93;3.63;;;;;;;5.77;60.99;100919.19;6261500;28;20235;-62
2021/01/08 01:48:52;;;;;;;4.00;3.67;;;;;;;5.86;60.79;100916.72;6264491;28;20682;-60
2021/01/08 01:52:13;;;;;;;4.70;4.30;;;;;;;5.80;60.78;100924.41;6263591;28;20239;-61
2021/01/08 01:55:34;;;;;;;4.87;4.47;;;;;;;5.81;61.02;100928.69;6261205;28;20232;-59
2021/01/08 01:58:54;;;;;;;5.10;4.60;;;;;;;5.84;61.17;100936.50;6260188;28;20228;-60
2021/01/08 02:02:23;;;;;;;4.53;3.87;;;;;;;5.82;60.81;100933.03;6252319;28;20236;-61
2021/01/08 02:05:46;;;;;;;4.07;3.60;;;;;;;5.84;61.20;100932.19;6256457;28;20223;-61
2021/01/08 02:09:12;;;;;;;3.50;3.30;;;;;;;5.83;61.17;100932.16;6262530;28;20236;-60
2021/01/08 02:12:35;;;;;;;4.10;3.80;;;;;;;5.80;60.66;100937.31;6257688;28;20228;-61
2021/01/08 02:15:57;;;;;;;4.00;3.70;;;;;;;5.84;60.77;100937.38;6257624;28;20358;-61
2021/01/08 02:19:24;;;;;;;3.90;3.60;;;;;;;5.85;61.10;100945.97;6257565;28;20216;-61
2021/01/08 02:22:51;;;;;;;5.23;4.83;;;;;;;5.93;60.94;100946.94;6254344;28;20319;-61
2021/01/08 02:26:13;;;;;;;3.73;3.43;;;;;;;5.91;61.04;100943.47;6260824;28;20235;-61
2021/01/08 02:29:34;;;;;;;4.13;3.83;;;;;;;5.96;60.53;100946.16;6258358;28;20619;-59
2021/01/08 02:32:54;;;;;;;3.60;3.30;;;;;;;5.95;60.45;100940.09;6256005;28;20327;-61
2021/01/08 02:36:15;;;;;;;3.63;3.33;;;;;;;5.92;60.81;100946.06;6248731;28;20718;-61
2021/01/08 02:39:35;;;;;;;4.07;3.73;;;;;;;5.90;60.56;100941.75;6257176;28;20220;-61
2021/01/08 02:43:01;;;;;;;4.70;4.30;;;;;;;5.90;60.65;100940.00;6262350;28;20559;-61
2021/01/08 02:46:21;;;;;;;4.53;4.00;;;;;;;5.85;60.60;100943.41;6256964;28;20560;-60
2021/01/08 02:49:41;;;;;;;4.87;4.50;;;;;;;5.89;60.56;100950.34;6264495;28;20220;-61
2021/01/08 02:53:06;;;;;;;4.77;4.37;;;;;;;5.86;60.98;100948.59;6257894;28;20239;-61
2021/01/08 02:56:32;;;;;;;5.30;4.80;;;;;;;5.87;60.90;100942.59;6264225;28;20239;-61
2021/01/08 02:59:55;;;;;;;5.07;4.37;;;;;;;5.90;60.53;100945.19;6256750;28;20229;-60
2021/01/08 03:03:16;;;;;;;5.83;5.33;;;;;;;5.87;60.81;100945.16;6259128;28;20651;-61
2021/01/08 03:06:40;;;;;;;5.57;5.07;;;;;;;5.96;60.67;100952.19;6264173;28;20616;-61
2021/01/08 03:10:02;;;;;;;6.47;5.87;;;;;;;5.97;60.45;100956.53;6247329;28;20645;-60
2021/01/08 03:13:23;;;;;;;6.17;5.67;;;;;;;5.94;60.19;100964.19;6259715;28;20215;-61
2021/01/08 03:16:45;;;;;;;6.43;5.93;;;;;;;5.79;60.94;100953.66;6256843;28;20228;-61
2021/01/08 03:20:07;;;;;;;5.50;5.10;;;;;;;5.85;60.61;100967.50;6256446;28;20224;-61
2021/01/08 03:23:28;;;;;;;6.23;5.63;;;;;;;5.93;60.49;100970.19;6247762;28;20492;-61
2021/01/08 03:26:48;;;;;;;5.90;5.47;;;;;;;5.87;60.77;100957.19;6255386;28;20507;-61
2021/01/08 03:30:10;;;;;;;6.20;5.60;;;;;;;5.94;60.55;100960.75;6255332;28;20228;-61
2021/01/08 03:33:32;;;;;;;5.83;5.33;;;;;;;5.97;60.64;100963.38;6248884;28;20333;-61
2021/01/08 03:36:52;;;;;;;6.37;5.87;;;;;;;5.99;60.67;100962.56;6259719;28;20240;-60
2021/01/08 03:40:13;;;;;;;6.40;5.90;;;;;;;6.00;60.12;100955.69;6250554;28;21837;-60
2021/01/08 03:43:33;;;;;;;7.13;6.50;;;;;;;5.90;60.62;100962.44;6260275;28;20231;-62
2021/01/08 03:46:54;;;;;;;6.33;5.73;;;;;;;5.92;60.65;100955.56;6254726;28;20232;-61
2021/01/08 03:50:15;;;;;;;5.93;5.43;;;;;;;5.87;60.74;100962.38;6262732;28;20247;-60
2021/01/08 03:53:35;;;;;;;6.30;5.70;;;;;;;5.81;60.45;100960.56;6261755;28;20227;-61
2021/01/08 03:56:56;;;;;;;7.60;6.90;;;;;;;5.88;60.84;100958.94;6246507;28;20276;-60
2021/01/08 04:00:17;;;;;;;8.50;7.70;;;;;;;5.88;60.56;100964.13;6256772;28;20327;-60
2021/01/08 04:03:37;;;;;;;7.33;6.63;;;;;;;5.89;60.24;100965.84;6259427;28;20232;-60
2021/01/08 04:06:59;;;;;;;6.53;5.93;;;;;;;5.70;61.08;100960.44;6263493;28;20330;-60
2021/01/08 04:10:19;;;;;;;6.30;5.80;;;;;;;5.70;61.21;100963.03;6259210;28;20232;-60
2021/01/08 04:13:39;;;;;;;7.90;7.20;;;;;;;5.62;61.14;100969.81;6258744;28;20239;-61
2021/01/08 04:17:00;;;;;;;6.13;5.63;;;;;;;5.61;61.25;100962.91;6255218;28;20255;-61
2021/01/08 04:20:21;;;;;;;6.00;5.50;;;;;;;5.62;61.24;100967.25;6256932;28;20266;-60
2021/01/08 04:23:42;;;;;;;7.07;6.37;;;;;;;5.64;61.23;100967.25;6262432;28;20235;-61
2021/01/08 04:27:03;;;;;;;6.60;6.00;;;;;;;5.61;61.19;100970.66;6244991;28;20236;-61
2021/01/08 04:30:24;;;;;;;6.70;6.10;;;;;;;5.56;61.25;100964.56;6254424;28;20231;-61
2021/01/08 04:33:44;;;;;;;8.27;7.00;;;;;;;5.68;61.28;100967.31;6259327;28;20231;-59
2021/01/08 04:37:04;;;;;;;6.87;6.27;;;;;;;5.78;61.00;100973.47;6259840;28;20232;-61
2021/01/08 04:40:26;;;;;;;7.83;7.00;;;;;;;5.79;60.79;100971.75;6257987;28;20231;-60
2021/01/08 04:43:46;;;;;;;8.03;7.23;;;;;;;5.79;60.56;100974.34;6255211;28;20622;-60
2021/01/08 04:47:10;;;;;;;7.67;6.97;;;;;;;5.68;60.93;100985.41;6249532;28;20307;-61
2021/01/08 04:50:32;;;;;;;7.27;6.57;;;;;;;5.52;61.88;100979.16;6250131;28;20318;-61
2021/01/08 04:53:53;;;;;;;8.10;7.27;;;;;;;5.54;61.57;100984.31;6257994;28;20228;-60
2021/01/08 04:57:16;;;;;;;7.83;7.13;;;;;;;5.41;61.58;100985.88;6250954;28;20235;-61
2021/01/08 05:00:37;;;;;;;8.60;7.77;;;;;;;5.41;61.71;100978.13;6259065;28;20231;-60
2021/01/08 05:03:57;;;;;;;10.77;8.10;;;;;;;5.35;61.99;100988.38;6258424;28;20318;-60
2021/01/08 05:07:18;;;;;;;9.80;7.67;;;;;;;5.42;62.22;100986.75;6251183;28;20280;-61
2021/01/08 05:10:38;;;;;;;7.67;6.93;;;;;;;5.39;61.88;100991.84;6252541;28;20224;-60
2021/01/08 05:14:01;;;;;;;10.50;7.37;;;;;;;5.41;62.10;100985.88;6256182;28;20232;-61
2021/01/08 05:17:29;;;;;;;9.40;8.23;;;;;;;5.40;62.08;100996.19;6251732;28;20243;-60
2021/01/08 05:20:51;;;;;;;9.17;7.40;;;;;;;5.47;61.88;101003.19;6261954;28;20227;-60
2021/01/08 05:24:12;;;;;;;8.53;7.23;;;;;;;5.50;61.82;100995.47;6255062;28;20590;-60
2021/01/08 05:27:32;;;;;;;9.87;8.87;;;;;;;5.63;61.49;101007.72;6251977;28;20228;-61
2021/01/08 05:30:56;;;;;;;9.87;8.53;;;;;;;5.66;61.18;101007.78;6255394;28;20224;-61
2021/01/08 05:34:24;;;;;;;9.13;8.17;;;;;;;5.76;60.88;101005.28;6250116;28;20247;-62
2021/01/08 05:37:46;;;;;;;9.23;8.33;;;;;;;5.65;61.29;101012.91;6262657;28;20232;-61
2021/01/08 05:41:06;;;;;;;11.60;9.30;;;;;;;5.46;61.76;101016.94;6259852;28;20239;-61
2021/01/08 05:44:27;;;;;;;8.63;7.83;;;;;;;5.45;61.26;101020.38;6265246;28;20227;-62
2021/01/08 05:47:50;;;;;;;9.00;8.10;;;;;;;5.53;61.62;101009.31;6259059;28;20227;-60
2021/01/08 05:51:15;;;;;;;9.03;8.13;;;;;;;5.55;61.43;101006.75;6261171;28;20243;-61
2021/01/08 05:54:36;;;;;;;9.50;8.47;;;;;;;5.48;61.23;101012.66;6258726;28;20239;-61
2021/01/08 05:57:56;;;;;;;9.37;7.77;;;;;;;5.63;61.24;101015.47;6262159;28;20319;-61
2021/01/08 06:01:18;;;;;;;9.40;8.33;;;;;;;5.61;61.01;101022.34;6255644;28;20541;-60
2021/01/08 06:04:41;;;;;;;9.33;8.43;;;;;;;5.64;60.76;101017.22;6265027;28;20299;-60
2021/01/08 06:08:03;;;;;;;9.53;8.57;;;;;;;5.69;61.17;101019.88;6256945;28;20602;-61
2021/01/08 06:11:26;;;;;;;9.67;8.17;;;;;;;5.64;61.38;101024.97;6255409;28;20235;-60
2021/01/08 06:14:48;;;;;;;9.80;8.77;;;;;;;5.65;61.38;101024.09;6254649;28;20510;-61
2021/01/08 06:18:10;;;;;;;9.93;8.93;;;;;;;5.58;61.65;101026.59;6257316;28;20630;-61
2021/01/08 06:21:38;;;;;;;10.23;8.93;;;;;;;5.64;61.48;101027.56;6259435;28;20711;-60
2021/01/08 06:24:59;;;;;;;10.20;9.03;;;;;;;5.69;61.18;101033.63;6250432;28;20232;-61
2021/01/08 06:28:23;;;;;;;11.93;10.40;;;;;;;5.47;61.50;101029.88;6251046;28;20228;-62
2021/01/08 06:31:48;;;;;;;10.10;9.07;;;;;;;5.62;61.79;101020.59;6254400;28;20644;-61
2021/01/08 06:35:09;;;;;;;11.27;10.07;;;;;;;5.49;61.82;101022.16;6259354;28;20224;-62
2021/01/08 06:38:37;;;;;;;11.63;9.60;;;;;;;5.64;61.47;101032.72;6256953;28;20248;-60
2021/01/08 06:42:01;;;;;;;10.80;9.63;;;;;;;5.75;61.39;101030.28;6260895;28;20230;-61
2021/01/08 06:45:21;;;;;;;10.00;9.00;;;;;;;5.55;61.52;101032.59;6259579;28;20260;-61
2021/01/08 06:48:47;;;;;;;11.93;10.73;;;;;;;5.53;61.56;101029.09;6258358;28;20223;-62
2021/01/08 06:52:07;;;;;;;11.47;9.83;;;;;;;5.45;61.69;101036.75;6242802;28;20728;-61
2021/01/08 06:55:36;;;;;;;10.43;9.33;;;;;;;5.54;62.10;101038.56;6256794;28;20232;-60
2021/01/08 06:58:58;;;;;;;12.37;11.27;;;;;;;5.44;62.04;101044.47;6256312;28;20548;-61
2021/01/08 07:02:22;;;;;;;11.17;10.07;;;;;;;5.50;61.91;101052.31;6248129;28;20232;-63
2021/01/08 07:05:45;;;;;;;11.60;10.13;;;;;;;5.56;62.09;101049.81;6249860;28;20232;-63
2021/01/08 07:09:07;;;;;;;10.87;9.70;;;;;;;5.62;62.00;101064.53;6255308;28;20232;-62
2021/01/08 07:12:28;;;;;;;12.30;10.40;;;;;;;5.54;61.87;101056.66;6245461;28;20769;-62
2021/01/08 07:15:48;;;;;;;12.20;11.00;;;;;;;5.40;62.60;101068.50;6245239;28;20306;-62
2021/01/08 07:19:11;;;;;;;11.47;10.27;;;;;;;5.46;62.00;101079.78;6246688;28;20248;-63
2021/01/08 07:22:36;;;;;;;13.70;10.13;;;;;;;5.29;62.72;101082.13;6242044;28;20663;-62
2021/01/08 07:25:58;;;;;;;11.60;10.40;;;;;;;5.26;62.39;101087.22;6266374;28;20518;-63
2021/01/08 07:29:27;;;;;;;12.13;10.23;;;;;;;5.40;62.39;101084.00;6264174;28;20620;-62
2021/01/08 07:32:49;;;;;;;13.23;11.83;;;;;;;5.23;63.05;101086.28;6261371;28;20227;-63
2021/01/08 07:36:22;;;;;;;12.90;10.63;;;;;;;5.37;62.41;101104.59;6264965;28;20228;-61
2021/01/08 07:39:43;;;;;;;13.83;11.57;;;;;;;5.48;62.30;101103.94;6258398;28;20595;-62
2021/01/08 07:43:04;;;;;;;11.53;10.33;;;;;;;5.57;61.93;101097.19;6260763;28;20240;-62
2021/01/08 07:46:31;;;;;;;16.90;12.43;;;;;;;5.24;62.79;101112.16;6259971;28;20301;-62
2021/01/08 07:50:05;;;;;;;14.47;11.90;;;;;;;5.46;62.15;101108.22;6249284;28;20274;-59
2021/01/08 07:53:47;;;;;;;11.57;10.37;;;;;;;5.49;62.38;101115.16;6261759;28;20231;-61
2021/01/08 07:57:07;;;;;;;12.73;11.07;;;;;;;5.48;62.32;101113.41;6262344;28;20239;-63
2021/01/08 08:00:28;;;;;;;12.37;11.17;;;;;;;5.46;62.38;101117.69;6263705;28;20227;-62
2021/01/08 08:03:57;;;;;;;12.63;11.33;;;;;;;5.59;61.98;101119.63;6254108;28;20227;-61
2021/01/08 08:07:21;;;;;;;12.83;11.40;;;;;;;5.51;62.36;101126.38;6250525;28;20231;-62
2021/01/08 08:10:42;;;;;;;16.17;11.73;;;;;;;5.22;63.20;101126.75;6258280;28;20307;-60
2021/01/08 08:14:04;;;;;;;15.70;11.97;;;;;;;5.40;62.90;101130.50;6259630;28;20308;-63
2021/01/08 08:17:26;;;;;;;13.57;11.73;;;;;;;5.53;62.36;101132.44;6257482;28;20306;-63
2021/01/08 08:20:47;;;;;;;12.97;11.47;;;;;;;5.62;62.31;101132.59;6253040;28;20224;-63
2021/01/08 08:24:08;;;;;;;13.27;11.27;;;;;;;5.61;61.81;101135.16;6259104;28;20232;-64
2021/01/08 08:27:29;;;;;;;14.50;12.77;;;;;;;5.44;62.53;101138.31;6254992;28;20227;-61
2021/01/08 08:30:51;;;;;;;14.93;12.23;;;;;;;5.28;62.67;101141.50;6251139;28;20223;-62
2021/01/08 08:34:13;;;;;;;14.80;11.90;;;;;;;5.42;62.55;101139.13;6245633;28;20239;-63
2021/01/08 08:37:45;;;;;;;17.03;13.30;;;;;;;5.49;62.21;101146.16;6242866;28;20822;-61
2021/01/08 08:41:13;;;;;;;15.43;13.83;;;;;;;5.61;62.02;101158.41;6244103;28;20232;-62
2021/01/08 08:44:41;;;;;;;17.37;12.53;;;;;;;5.49;62.37;101157.34;6244606;28;20228;-63
2021/01/08 08:48:04;;;;;;;16.03;12.50;;;;;;;5.55;62.11;101154.00;6246992;28;20234;-63
2021/01/08 08:51:25;;;;;;;13.97;11.30;;;;;;;5.59;62.11;101165.28;6245706;28;20223;-64
2021/01/08 08:54:48;;;;;;;14.47;12.73;;;;;;;5.64;61.78;101167.09;6245761;28;20219;-62
2021/01/08 08:58:11;;;;;;;14.77;11.97;;;;;;;5.50;62.00;101160.81;6243485;28;20327;-64
2021/01/08 09:01:41;;;;;;;16.77;12.10;;;;;;;5.61;62.18;101169.59;6237400;28;20244;-65
2021/01/08 09:05:03;;;;;;;14.90;12.97;;;;;;;5.62;61.63;101173.94;6247480;28;20239;-63
2021/01/08 09:08:26;;;;;;;15.50;13.40;;;;;;;5.60;61.57;101177.31;6248953;28;20235;-63
2021/01/08 09:12:03;;;;;;;14.03;11.53;;;;;;;5.69;62.62;101180.06;6250889;28;20228;-60
2021/01/08 09:15:27;;;;;;;14.90;11.87;;;;;;;5.55;62.10;101182.44;6255435;28;20323;-62
2021/01/08 09:18:54;;;;;;;15.87;12.20;;;;;;;5.45;62.44;101185.69;6262698;28;20239;-63
2021/01/08 09:22:16;;;;;;;11.95;10.30;;;;;;;5.64;62.08;101185.19;6261238;28;20231;-62
2021/01/08 09:25:38;;;;;;;15.30;12.27;;;;;;;5.73;61.46;101195.66;6259214;28;20240;-60
2021/01/08 09:28:59;;;;;;;15.40;12.77;;;;;;;5.63;61.88;101193.75;6262634;28;20232;-63
2021/01/08 09:32:31;;;;;;;14.33;11.93;;;;;;;5.58;62.03;101192.78;6251372;28;20244;-63
2021/01/08 09:35:52;;;;;;;15.67;12.67;;;;;;;5.64;61.70;101200.69;6252544;28;20240;-63
2021/01/08 09:39:13;;;;;;;15.97;11.47;;;;;;;5.43;62.19;101197.69;6262345;28;20236;-62
2021/01/08 09:42:36;;;;;;;15.97;14.27;;;;;;;5.54;62.01;101198.75;6259788;28;20247;-62
2021/01/08 09:46:07;;;;;;;13.60;12.00;;;;;;;5.41;62.64;101197.69;6263075;28;20237;-62
2021/01/08 09:49:38;;;;;;;13.33;11.93;;;;;;;5.39;62.55;101203.66;6255015;28;20326;-62
2021/01/08 09:53:01;;;;;;;13.90;11.87;;;;;;;5.47;62.01;101204.69;6264756;28;20235;-62
2021/01/08 09:56:22;;;;;;;13.53;12.13;;;;;;;5.46;62.29;101205.50;6252916;28;20252;-60
2021/01/08 09:59:53;;;;;;;16.47;12.03;;;;;;;5.36;62.61;101201.03;6261428;28;20223;-60
2021/01/08 10:03:19;;;;;;;12.63;11.27;;;;;;;5.39;62.61;101201.97;6255791;28;20236;-62
2021/01/08 10:07:01;;;;;;;12.40;11.07;;;;;;;5.41;62.10;101209.72;6258544;28;20324;-60
2021/01/08 10:10:40;;;;;;;12.77;11.17;;;;;;;5.36;62.85;101203.59;6258016;28;20227;-62
2021/01/08 10:14:02;;;;;;;13.40;12.10;;;;;;;5.48;62.21;101206.41;6259271;28;20227;-62
2021/01/08 10:17:22;;;;;;;11.80;10.50;;;;;;;5.47;62.31;101210.72;6261940;28;20228;-63
2021/01/08 10:20:46;;;;;;;16.40;12.67;;;;;;;5.47;62.36;101202.97;6256848;28;20224;-62
2021/01/08 10:24:08;;;;;;;12.83;11.53;;;;;;;5.45;62.18;101207.22;6259119;28;20236;-62
2021/01/08 10:27:28;;;;;;;13.57;11.17;;;;;;;5.15;62.98;101207.50;6260107;28;20259;-63
2021/01/08 10:30:51;;;;;;;12.87;11.43;;;;;;;5.15;63.42;101202.34;6260886;28;20228;-61
2021/01/08 10:34:12;;;;;;;13.00;10.57;;;;;;;5.40;62.94;101206.25;6258978;28;20231;-63
2021/01/08 10:37:34;;;;;;;13.80;10.80;;;;;;;5.47;62.31;101207.25;6259738;28;20648;-61
2021/01/08 10:40:54;;;;;;;12.43;11.23;;;;;;;5.52;62.12;101208.19;6248304;28;20228;-61
2021/01/08 10:44:14;;;;;;;13.27;11.90;;;;;;;5.38;62.38;101210.53;6246748;28;20330;-63
2021/01/08 10:47:35;;;;;;;12.83;11.50;;;;;;;5.42;62.37;101214.03;6254672;28;20231;-61
2021/01/08 10:50:55;;;;;;;12.57;11.23;;;;;;;5.36;62.78;101212.22;6259413;28;20232;-62
2021/01/08 10:54:18;;;;;;;13.17;10.90;;;;;;;5.32;62.53;101215.59;6259583;28;20315;-61
2021/01/08 10:57:38;;;;;;;13.70;12.30;;;;;;;5.26;63.01;101208.59;6252262;28;20229;-63
2021/01/08 11:00:59;;;;;;;11.13;9.97;;;;;;;5.52;62.63;101213.38;6260604;28;20231;-61
2021/01/08 11:04:19;;;;;;;12.67;10.63;;;;;;;5.36;62.19;101213.94;6263259;28;20236;-60
2021/01/08 11:07:39;;;;;;;12.90;11.60;;;;;;;5.16;63.33;101219.59;6251266;28;20232;-61
2021/01/08 11:11:00;;;;;;;12.07;10.93;;;;;;;5.43;63.14;101216.66;6259195;28;20247;-61
2021/01/08 11:14:21;;;;;;;11.90;10.70;;;;;;;5.42;62.57;101216.63;6248315;28;20228;-61
2021/01/08 11:17:42;;;;;;;11.30;10.20;;;;;;;5.25;63.15;101219.78;6250446;28;20225;-60
2021/01/08 11:21:02;;;;;;;14.83;12.60;;;;;;;5.30;62.93;101220.72;6252656;28;20228;-60
2021/01/08 11:24:23;;;;;;;13.23;11.53;;;;;;;5.29;62.49;101221.56;6247911;28;20637;-61
2021/01/08 11:27:44;;;;;;;10.87;9.77;;;;;;;5.26;63.06;101221.50;6254717;28;20236;-62
2021/01/08 11:31:05;;;;;;;11.33;10.20;;;;;;;5.30;62.44;101223.31;6241755;28;20231;-62
2021/01/08 11:34:26;;;;;;;11.37;10.17;;;;;;;5.33;62.54;101219.91;6244639;28;20220;-63
2021/01/08 11:37:46;;;;;;;11.20;10.07;;;;;;;5.42;62.25;101221.78;6248970;28;20224;-63
2021/01/08 11:41:07;;;;;;;11.50;9.93;;;;;;;5.60;61.94;101221.25;6249310;28;20969;-62
2021/01/08 11:44:28;;;;;;;12.53;11.20;;;;;;;5.34;62.55;101224.22;6246358;28;20227;-64
2021/01/08 11:47:48;;;;;;;10.70;9.60;;;;;;;5.31;62.52;101222.47;6246599;28;20602;-64
2021/01/08 11:51:12;;;;;;;11.20;9.80;;;;;;;5.29;62.87;101225.84;6248009;28;20345;-64
2021/01/08 11:54:32;;;;;;;11.43;10.33;;;;;;;5.22;62.64;101221.44;6258275;28;20326;-62
2021/01/08 11:57:53;;;;;;;12.87;10.43;;;;;;;5.48;62.21;101221.91;6254981;28;20322;-63
2021/01/08 12:01:14;;;;;;;13.10;10.47;;;;;;;5.55;62.11;101218.59;6252911;28;20259;-63
2021/01/08 12:04:35;;;;;;;11.33;10.17;;;;;;;5.50;62.05;101220.22;6249189;28;20497;-63
2021/01/08 12:07:56;;;;;;;11.87;10.27;;;;;;;5.34;62.43;101231.97;6257472;28;20229;-62
2021/01/08 12:11:16;;;;;;;10.80;9.43;;;;;;;5.14;63.35;101231.59;6247687;28;21899;-62
2021/01/08 12:14:37;;;;;;;11.20;10.10;;;;;;;5.24;62.70;101232.66;6246756;28;20256;-63
2021/01/08 12:17:58;;;;;;;12.17;10.23;;;;;;;5.36;62.83;101237.19;6245497;28;20511;-63
2021/01/08 12:21:19;;;;;;;11.03;9.97;;;;;;;5.27;62.71;101238.75;6243755;28;20664;-63
2021/01/08 12:24:39;;;;;;;10.17;9.20;;;;;;;5.21;62.72;101238.63;6247656;28;20240;-62
2021/01/08 12:28:01;;;;;;;11.47;9.77;;;;;;;5.32;62.70;101234.53;6252067;28;20243;-62
2021/01/08 12:31:25;;;;;;;11.90;10.50;;;;;;;5.31;62.39;101229.34;6249132;28;20232;-61
2021/01/08 12:34:46;;;;;;;11.20;9.40;;;;;;;5.43;62.15;101236.44;6261384;28;20224;-63
2021/01/08 12:38:07;;;;;;;10.27;9.30;;;;;;;5.48;62.17;101235.69;6251622;28;20608;-62
2021/01/08 12:41:30;;;;;;;10.63;9.53;;;;;;;5.73;61.85;101238.72;6250920;28;20231;-63
2021/01/08 12:44:50;;;;;;;13.30;11.57;;;;;;;5.52;62.41;101242.69;6248611;28;20239;-63
2021/01/08 12:48:11;;;;;;;10.70;9.67;;;;;;;5.65;62.01;101241.16;6247322;28;20613;-62
2021/01/08 12:51:32;;;;;;;10.57;8.70;;;;;;;5.28;62.31;101240.47;6248702;28;20239;-62
2021/01/08 12:54:52;;;;;;;12.07;10.87;;;;;;;5.32;62.32;101241.41;6250688;28;20255;-63
2021/01/08 12:58:13;;;;;;;12.07;9.23;;;;;;;5.45;61.98;101239.94;6248143;28;20220;-62
2021/01/08 13:01:34;;;;;;;8.70;7.80;;;;;;;5.25;62.26;101240.44;6240320;28;20840;-62
2021/01/08 13:04:54;;;;;;;9.50;8.60;;;;;;;5.36;62.84;101232.03;6252767;28;20223;-62
2021/01/08 13:08:15;;;;;;;9.37;8.43;;;;;;;5.64;62.01;101242.03;6235517;28;20554;-62
2021/01/08 13:11:38;;;;;;;8.70;7.90;;;;;;;5.40;62.19;101233.81;6251189;28;20232;-62
2021/01/08 13:14:58;;;;;;;9.83;8.83;;;;;;;5.40;62.30;101244.16;6251516;28;20229;-62
2021/01/08 13:18:19;;;;;;;10.33;9.33;;;;;;;5.26;62.37;101249.06;6245428;28;20232;-62
2021/01/08 13:21:39;;;;;;;9.37;8.47;;;;;;;5.39;61.95;101255.31;6253374;28;20248;-63
2021/01/08 13:25:01;;;;;;;10.30;8.93;;;;;;;5.26;62.74;101257.66;6247370;28;20239;-62
2021/01/08 13:28:21;;;;;;;10.57;8.70;;;;;;;5.25;62.68;101262.78;6245389;28;20232;-60
2021/01/08 13:31:44;;;;;;;10.67;9.57;;;;;;;5.25;62.45;101263.69;6242935;28;20227;-63
2021/01/08 13:35:06;;;;;;;10.50;9.30;;;;;;;5.48;61.99;101258.06;6243262;28;20236;-64
2021/01/08 13:38:26;;;;;;;10.07;9.03;;;;;;;5.45;62.23;101258.91;6250919;28;20287;-62
2021/01/08 13:42:01;;;;;;;9.83;8.83;;;;;;;5.35;62.37;101269.00;6260903;28;20235;-62
2021/01/08 13:45:22;;;;;;;9.07;8.20;;;;;;;5.24;62.70;101263.66;6256913;28;20228;-62
2021/01/08 13:48:44;;;;;;;8.53;7.73;;;;;;;5.27;62.33;101263.69;6251015;28;20248;-62
2021/01/08 13:52:06;;;;;;;9.20;8.27;;;;;;;5.14;62.53;101267.75;6242330;28;20561;-63
2021/01/08 13:55:27;;;;;;;11.10;8.90;;;;;;;5.29;62.55;101270.66;6245059;28;20228;-63
2021/01/08 13:58:49;;;;;;;9.60;8.20;;;;;;;5.25;63.18;101278.28;6253425;28;20236;-63
2021/01/08 14:02:09;;;;;;;9.83;8.57;;;;;;;5.05;63.13;101277.88;6250843;28;20684;-64
2021/01/08 14:05:29;;;;;;;9.00;8.10;;;;;;;5.27;62.53;101279.19;6264336;28;20243;-63
2021/01/08 14:08:51;;;;;;;8.97;8.03;;;;;;;5.17;63.29;101292.75;6254699;28;20255;-67
2021/01/08 14:12:11;;;;;;;8.40;7.57;;;;;;;5.94;67.75;101283.91;6260964;28;20235;-64
2021/01/08 14:15:33;;;;;;;10.43;9.43;;;;;;;5.84;62.12;101290.63;6248182;28;20228;-64
2021/01/08 14:18:54;;;;;;;10.33;8.67;;;;;;;5.61;62.25;101295.34;6247350;28;20235;-64
2021/01/08 14:22:14;;;;;;;9.53;8.50;;;;;;;5.53;62.34;101290.91;6243468;28;20224;-63
2021/01/08 14:25:35;;;;;;;9.27;8.37;;;;;;;5.42;62.29;101296.72;6242917;28;20259;-64
2021/01/08 14:28:56;;;;;;;8.43;7.63;;;;;;;5.43;62.03;101299.31;6248118;28;20239;-63
2021/01/08 14:32:17;;;;;;;8.97;8.07;;;;;;;5.45;64.81;101304.53;6245826;28;20224;-62
2021/01/08 14:35:38;;;;;;;9.97;8.97;;;;;;;6.08;63.12;101301.41;6246542;28;20789;-64
2021/01/08 14:38:58;;;;;;;8.83;7.93;;;;;;;5.81;61.32;101311.22;6245372;28;20244;-63
2021/01/08 14:42:19;;;;;;;9.20;8.30;;;;;;;5.77;61.71;101302.53;6251507;28;20223;-64
2021/01/08 14:45:40;;;;;;;9.77;8.77;;;;;;;5.78;61.80;101318.91;6248264;28;20244;-64
2021/01/08 14:49:01;;;;;;;10.43;8.47;;;;;;;5.49;62.01;101321.81;6253557;28;20244;-64
2021/01/08 14:52:21;;;;;;;10.03;9.03;;;;;;;5.40;62.16;101311.31;6254057;28;20271;-63
2021/01/08 14:55:42;;;;;;;9.47;8.57;;;;;;;5.47;61.64;101323.50;6257070;28;20229;-64
2021/01/08 14:59:03;;;;;;;9.43;8.43;;;;;;;5.58;61.49;101326.28;6258395;28;20231;-63
2021/01/08 15:02:24;;;;;;;9.03;8.23;;;;;;;5.39;61.20;101331.09;6246426;28;20227;-63
2021/01/08 15:05:45;;;;;;;8.83;7.93;;;;;;;5.24;62.04;101330.78;6248363;28;20236;-64
2021/01/08 15:09:07;;;;;;;8.90;8.10;;;;;;;5.50;61.80;101339.06;6253242;28;20446;-63
2021/01/08 15:12:27;;;;;;;8.50;7.80;;;;;;;5.46;62.01;101339.84;6244771;28;20311;-64
2021/01/08 15:15:48;;;;;;;9.47;8.07;;;;;;;5.55;61.60;101344.34;6241891;28;20228;-63
2021/01/08 15:19:09;;;;;;;8.60;7.80;;;;;;;5.46;61.31;101350.16;6244083;28;20653;-63
2021/01/08 15:22:30;;;;;;;9.07;8.17;;;;;;;5.42;61.53;101350.94;6239723;28;20228;-63
2021/01/08 15:25:50;;;;;;;9.50;8.63;;;;;;;5.24;62.45;101349.72;6245508;28;20231;-64
2021/01/08 15:29:11;;;;;;;8.77;7.80;;;;;;;5.30;62.29;101360.19;6242586;28;20251;-64
2021/01/08 15:32:31;;;;;;;9.20;8.40;;;;;;;5.21;62.39;101352.22;6245808;28;20236;-64
2021/01/08 15:35:59;;;;;;;8.70;7.90;;;;;;;5.36;61.93;101356.00;6244583;28;20259;-64
2021/01/08 15:39:20;;;;;;;9.97;8.87;;;;;;;5.22;61.88;101359.16;6242082;28;20714;-64
2021/01/08 15:42:41;;;;;;;9.40;8.53;;;;;;;5.02;62.11;101365.56;6245457;28;20220;-65